createdAt,value
2022-08-05T00:01:28.992Z,46.61
2022-08-05T00:03:56.812Z,46.90
2022-08-05T00:06:30.668Z,46.99
2022-08-05T00:09:00.807Z,47.42
2022-08-05T00:11:34.858Z,47.51
2022-08-05T00:14:17.188Z,47.57
2022-08-05T00:16:53.689Z,47.70
2022-08-05T00:19:22.399Z,47.98
2022-08-05T00:21:49.691Z,48.05
2022-08-05T00:24:24.298Z,48.40
2022-08-05T00:26:53.352Z,48.70
2022-08-05T00:29:22.735Z,48.99
2022-08-05T00:32:13.294Z,49.15
2022-08-05T00:35:03.564Z,49.43
2022-08-05T00:37:50.482Z,49.63
2022-08-05T00:40:27.526Z,49.57
2022-08-05T00:42:58.002Z,49.51
2022-08-05T00:45:37.876Z,49.40
2022-08-05T00:48:08.130Z,49.16
2022-08-05T00:50:37.316Z,48.97
2022-08-05T00:53:09.906Z,49.06
2022-08-05T00:55:51.345Z,49.05
2022-08-05T00:58:19.173Z,49.00
2022-08-05T01:00:47.154Z,49.02
2022-08-05T01:03:22.706Z,49.22
2022-08-05T01:05:51.273Z,49.22
2022-08-05T01:08:40.528Z,49.26
2022-08-05T01:11:13.629Z,49.42
2022-08-05T01:13:59.952Z,49.70
2022-08-05T01:16:50.127Z,49.66
2022-08-05T01:19:30.083Z,49.66
2022-08-05T01:22:18.828Z,49.90
2022-08-05T01:25:39.695Z,49.86
2022-08-05T01:28:15.725Z,49.90
2022-08-05T01:30:55.193Z,50.07
2022-08-05T01:33:35.310Z,50.13
2022-08-05T01:36:28.165Z,50.08
2022-08-05T01:39:01.141Z,50.11
2022-08-05T01:41:33.902Z,50.30
2022-08-05T01:44:02.816Z,50.60
2022-08-05T01:46:42.559Z,50.70
2022-08-05T01:49:24.764Z,50.81
2022-08-05T01:51:59.890Z,50.98
2022-08-05T01:54:46.080Z,51.04
2022-08-05T01:58:14.916Z,51.22
2022-08-05T02:04:36.257Z,51.68
2022-08-05T02:07:04.080Z,51.77
2022-08-05T02:09:33.723Z,51.76
2022-08-05T02:12:13.211Z,51.72
2022-08-05T02:14:48.228Z,51.61
2022-08-05T02:18:32.941Z,51.83
2022-08-05T02:20:39.136Z,51.65
2022-08-05T02:23:10.409Z,51.59
2022-08-05T02:25:50.196Z,51.55
2022-08-05T02:28:33.091Z,51.56
2022-08-05T02:31:16.292Z,51.61
2022-08-05T02:34:06.636Z,51.80
2022-08-05T02:36:54.035Z,51.82
2022-08-05T02:39:23.922Z,51.86
2022-08-05T02:41:58.059Z,51.95
2022-08-05T02:44:33.215Z,52.07
2022-08-05T02:47:05.197Z,52.10
2022-08-05T02:49:37.972Z,52.08
2022-08-05T02:52:29.640Z,52.23
2022-08-05T02:55:05.647Z,52.29
2022-08-05T02:58:11.265Z,52.36
2022-08-05T03:00:24.804Z,52.33
2022-08-05T03:02:57.296Z,52.58
2022-08-05T03:06:55.155Z,52.63
2022-08-05T03:08:15.590Z,52.92
2022-08-05T03:11:55.322Z,53.17
2022-08-05T03:13:51.879Z,53.39
2022-08-05T03:16:20.165Z,53.55
2022-08-05T03:18:47.561Z,53.67
2022-08-05T03:21:15.593Z,53.88
2022-08-05T03:23:44.040Z,53.93
2022-08-05T03:26:30.862Z,54.00
2022-08-05T03:29:01.365Z,54.36
2022-08-05T03:31:56.791Z,54.48
2022-08-05T03:34:24.298Z,54.58
2022-08-05T03:36:52.649Z,54.65
2022-08-05T03:39:26.865Z,54.64
2022-08-05T03:41:56.183Z,54.97
2022-08-05T03:44:24.487Z,55.05
2022-08-05T03:46:52.331Z,54.97
2022-08-05T03:49:30.802Z,55.26
2022-08-05T03:52:38.146Z,55.38
2022-08-05T03:56:09.274Z,55.58
2022-08-05T03:57:59.329Z,55.51
2022-08-05T04:00:31.303Z,55.31
2022-08-05T04:03:02.836Z,55.29
2022-08-05T04:06:10.994Z,55.35
2022-08-05T04:08:40.474Z,55.33
2022-08-05T04:11:09.977Z,55.21
2022-08-05T04:13:49.851Z,55.18
2022-08-05T04:16:25.177Z,55.43
2022-08-05T04:18:57.715Z,55.55
2022-08-05T04:22:10.284Z,55.41
2022-08-05T04:24:19.714Z,55.16
2022-08-05T04:26:50.201Z,55.19
2022-08-05T04:29:17.051Z,55.09
2022-08-05T04:31:48.182Z,55.12
2022-08-05T04:34:29.578Z,55.09
2022-08-05T04:37:00.767Z,55.08
2022-08-05T04:39:27.974Z,55.08
2022-08-05T04:41:55.303Z,55.07
2022-08-05T04:44:29.363Z,55.22
2022-08-05T04:47:09.954Z,55.25
2022-08-05T04:50:01.726Z,55.43
2022-08-05T04:52:28.280Z,55.40
2022-08-05T04:54:57.222Z,55.27
2022-08-05T04:57:28.919Z,55.18
2022-08-05T04:59:57.486Z,55.06
2022-08-05T05:02:41.470Z,54.91
2022-08-05T05:05:26.552Z,54.84
2022-08-05T05:08:02.409Z,54.86
2022-08-05T05:10:55.842Z,54.94
2022-08-05T05:13:23.350Z,54.85
2022-08-05T05:15:57.365Z,54.84
2022-08-05T05:18:33.665Z,54.81
2022-08-05T05:21:03.086Z,54.84
2022-08-05T05:24:01.913Z,54.71
2022-08-05T05:26:17.176Z,54.65
2022-08-05T05:28:44.867Z,54.53
2022-08-05T05:31:12.564Z,54.28
2022-08-05T05:33:59.607Z,54.24
2022-08-05T05:36:28.828Z,54.21
2022-08-05T05:38:57.324Z,54.17
2022-08-05T05:41:24.411Z,54.21
2022-08-05T05:43:58.098Z,53.99
2022-08-05T05:46:27.468Z,53.80
2022-08-05T05:48:59.411Z,53.92
2022-08-05T05:51:49.941Z,53.86
2022-08-05T05:54:17.945Z,53.86
2022-08-05T05:56:51.090Z,53.70
2022-08-05T05:59:19.933Z,53.55
2022-08-05T06:01:57.150Z,53.57
2022-08-05T06:04:25.285Z,53.59
2022-08-05T06:06:52.202Z,53.54
2022-08-05T06:09:25.911Z,53.44
2022-08-05T06:12:03.080Z,53.29
2022-08-05T06:14:31.030Z,53.22
2022-08-05T06:16:59.086Z,53.23
2022-08-05T06:19:34.009Z,53.18
2022-08-05T06:22:07.145Z,52.98
2022-08-05T06:24:35.346Z,53.01
2022-08-05T06:27:02.420Z,52.75
2022-08-05T06:29:46.949Z,52.45
2022-08-05T06:32:25.323Z,52.18
2022-08-05T06:34:56.365Z,52.04
2022-08-05T06:37:56.446Z,51.79
2022-08-05T06:40:13.722Z,51.26
2022-08-05T06:42:40.625Z,51.05
2022-08-05T06:45:10.730Z,50.96
2022-08-05T06:48:37.078Z,51.08
2022-08-05T06:50:38.747Z,50.42
2022-08-05T06:53:19.653Z,50.40
2022-08-05T06:55:55.040Z,50.46
2022-08-05T06:58:34.754Z,50.47
2022-08-05T07:01:06.133Z,50.71
2022-08-05T07:03:35.025Z,50.79
2022-08-05T07:06:06.033Z,50.53
2022-08-05T07:08:42.826Z,50.62
2022-08-05T07:11:15.255Z,50.72
2022-08-05T07:14:02.589Z,50.80
2022-08-05T07:18:08.749Z,50.80
2022-08-05T07:20:16.781Z,50.61
2022-08-05T07:22:30.512Z,50.07
2022-08-05T07:25:22.718Z,50.19
2022-08-05T07:28:05.406Z,49.43
2022-08-05T07:30:55.052Z,49.08
2022-08-05T07:33:36.855Z,49.35
2022-08-05T07:36:20.802Z,49.59
2022-08-05T07:39:08.692Z,49.29
2022-08-05T07:42:13.711Z,49.33
2022-08-05T07:44:40.373Z,49.33
2022-08-05T07:47:10.162Z,49.21
2022-08-05T07:49:43.563Z,48.40
2022-08-05T07:52:21.384Z,48.44
2022-08-05T07:54:59.005Z,48.60
2022-08-05T07:57:56.339Z,48.73
2022-08-05T08:00:26.428Z,48.51
2022-08-05T08:03:13.578Z,48.33
2022-08-05T08:05:49.267Z,48.41
2022-08-05T08:08:19.848Z,48.49
2022-08-05T08:10:48.655Z,48.47
2022-08-05T08:13:22.161Z,48.27
2022-08-05T08:16:35.317Z,48.60
2022-08-05T08:18:49.931Z,48.25
2022-08-05T08:21:17.619Z,48.26
2022-08-05T08:24:01.571Z,48.02
2022-08-05T08:26:33.947Z,47.93
2022-08-05T08:29:22.013Z,47.92
2022-08-05T08:31:58.946Z,47.06
2022-08-05T08:34:30.221Z,46.14
2022-08-05T08:37:04.627Z,46.39
2022-08-05T08:39:37.424Z,45.71
2022-08-05T08:42:15.179Z,46.08
2022-08-05T08:45:23.475Z,45.65
2022-08-05T08:48:12.561Z,45.12
2022-08-05T08:51:04.145Z,44.45
2022-08-05T08:53:38.137Z,43.48
2022-08-05T08:56:13.744Z,43.41
2022-08-05T08:58:44.452Z,42.12
2022-08-05T09:01:18.293Z,41.78
2022-08-05T09:03:47.713Z,42.09
2022-08-05T09:06:27.783Z,42.27
2022-08-05T09:09:01.636Z,42.13
2022-08-05T09:11:51.698Z,41.62
2022-08-05T09:14:58.822Z,41.67
2022-08-05T09:17:09.720Z,41.67
2022-08-05T09:20:02.612Z,41.19
2022-08-05T09:23:19.205Z,40.75
2022-08-05T09:26:02.328Z,40.26
2022-08-05T09:28:37.052Z,40.24
2022-08-05T09:32:39.009Z,39.40
2022-08-05T09:34:54.370Z,38.52
2022-08-05T09:38:17.510Z,38.01
2022-08-05T09:40:56.425Z,38.14
2022-08-05T09:43:54.588Z,37.74
2022-08-05T09:46:30.676Z,37.95
2022-08-05T09:49:19.867Z,37.42
2022-08-05T09:52:21.901Z,36.13
2022-08-05T09:55:56.478Z,34.59
2022-08-05T09:58:47.380Z,35.00
2022-08-05T10:01:31.895Z,34.94
2022-08-05T10:04:35.720Z,34.85
2022-08-05T10:07:19.589Z,33.71
2022-08-05T10:10:04.408Z,34.26
2022-08-05T10:12:49.186Z,33.82
2022-08-05T10:15:38.010Z,33.17
2022-08-05T10:18:23.074Z,33.33
2022-08-05T10:20:52.699Z,32.94
2022-08-05T10:23:50.980Z,32.09
2022-08-05T10:26:15.199Z,30.97
2022-08-05T10:28:45.057Z,31.37
2022-08-05T10:32:48.526Z,31.62
2022-08-05T10:34:03.712Z,31.09
2022-08-05T10:36:36.431Z,31.43
2022-08-05T10:40:03.551Z,32.02
2022-08-05T10:42:22.797Z,32.34
2022-08-05T10:45:01.599Z,32.21
2022-08-05T10:47:33.746Z,31.97
2022-08-05T10:50:31.691Z,31.35
2022-08-05T10:53:01.033Z,31.55
2022-08-05T10:55:38.484Z,31.26
2022-08-05T10:58:19.996Z,30.12
2022-08-05T11:00:55.449Z,28.12
2022-08-05T11:03:30.672Z,28.76
2022-08-05T11:06:08.395Z,29.33
2022-08-05T11:09:13.207Z,29.19
2022-08-05T11:11:53.469Z,29.46
2022-08-05T11:17:57.905Z,28.56
2022-08-05T11:20:52.014Z,28.80
2022-08-05T11:24:05.437Z,28.58
2022-08-05T11:26:39.378Z,27.58
2022-08-05T11:29:14.059Z,28.11
2022-08-05T11:31:56.968Z,27.63
2022-08-05T11:34:58.585Z,28.52
2022-08-05T11:38:29.935Z,27.84
2022-08-05T11:41:35.685Z,27.93
2022-08-05T11:44:53.433Z,26.97
2022-08-05T11:47:48.425Z,27.19
2022-08-05T11:50:20.015Z,27.04
2022-08-05T11:53:09.979Z,26.48
2022-08-05T11:55:59.267Z,26.79
2022-08-05T11:58:34.274Z,26.62
2022-08-05T12:01:19.153Z,26.44
2022-08-05T12:03:55.735Z,26.73
2022-08-05T12:06:28.115Z,26.90
2022-08-05T12:08:59.200Z,26.59
2022-08-05T12:11:39.891Z,26.89
2022-08-05T12:14:14.752Z,26.71
2022-08-05T12:16:47.299Z,26.89
2022-08-05T12:20:26.289Z,25.91
2022-08-05T12:22:09.640Z,25.99
2022-08-05T12:25:02.360Z,24.54
2022-08-05T12:27:35.660Z,25.24
2022-08-05T12:30:22.577Z,25.53
2022-08-05T12:33:07.342Z,25.48
2022-08-05T12:35:47.459Z,24.97
2022-08-05T12:38:15.860Z,24.55
2022-08-05T12:40:49.922Z,24.83
2022-08-05T12:43:20.625Z,25.28
2022-08-05T12:45:53.668Z,25.67
2022-08-05T12:48:40.793Z,25.44
2022-08-05T12:52:12.602Z,25.55
2022-08-05T12:54:23.755Z,25.58
2022-08-05T12:57:03.680Z,25.12
2022-08-05T13:00:08.352Z,23.94
2022-08-05T13:02:30.480Z,23.68
2022-08-05T13:05:00.319Z,23.83
2022-08-05T13:10:19.689Z,23.98
2022-08-05T13:12:51.057Z,24.24
2022-08-05T13:15:41.259Z,24.34
2022-08-05T13:18:24.074Z,24.31
2022-08-05T13:21:12.382Z,24.13
2022-08-05T13:24:57.727Z,24.56
2022-08-05T13:27:52.667Z,24.31
2022-08-05T13:30:32.933Z,22.23
2022-08-05T13:33:05.027Z,22.19
2022-08-05T13:36:01.915Z,22.40
2022-08-05T13:38:36.272Z,22.81
2022-08-05T13:41:36.094Z,24.33
2022-08-05T13:45:06.926Z,24.65
2022-08-05T13:48:09.741Z,24.67
2022-08-05T13:50:24.005Z,23.49
2022-08-05T13:52:51.512Z,23.52
2022-08-05T13:55:40.828Z,22.99
2022-08-05T13:58:08.624Z,23.28
2022-08-05T14:00:38.109Z,22.90
2022-08-05T14:03:10.317Z,22.35
2022-08-05T14:06:25.636Z,22.58
2022-08-05T14:08:27.339Z,22.76
2022-08-05T14:11:03.064Z,23.32
2022-08-05T14:13:48.236Z,23.84
2022-08-05T14:16:17.093Z,23.67
2022-08-05T14:18:52.258Z,23.10
2022-08-05T14:22:07.469Z,23.10
2022-08-05T14:24:11.865Z,23.56
2022-08-05T14:26:51.439Z,23.58
2022-08-05T14:29:27.735Z,23.59
2022-08-05T14:32:12.481Z,23.61
2022-08-05T14:34:59.211Z,23.26
2022-08-05T14:37:42.175Z,23.21
2022-08-05T14:40:17.125Z,23.00
2022-08-05T14:42:44.347Z,22.65
2022-08-05T14:45:16.053Z,21.88
2022-08-05T14:48:05.803Z,21.78
2022-08-05T14:50:39.786Z,21.68
2022-08-05T14:53:07.655Z,21.25
2022-08-05T14:55:39.138Z,21.42
2022-08-05T14:58:11.793Z,21.89
2022-08-05T15:00:58.374Z,21.62
2022-08-05T15:03:33.341Z,21.11
2022-08-05T15:06:12.890Z,21.39
2022-08-05T15:09:01.295Z,22.28
2022-08-05T15:11:52.884Z,23.05
2022-08-05T15:14:33.158Z,23.16
2022-08-05T15:17:00.957Z,22.11
2022-08-05T15:19:27.634Z,21.76
2022-08-05T15:21:54.523Z,22.38
2022-08-05T15:24:27.360Z,22.72
2022-08-05T15:26:54.126Z,22.85
2022-08-05T15:29:22.962Z,22.80
2022-08-05T15:31:53.031Z,22.44
2022-08-05T15:34:31.915Z,21.55
2022-08-05T15:37:06.358Z,21.97
2022-08-05T15:40:59.098Z,22.10
2022-08-05T15:42:56.640Z,22.42
2022-08-05T15:45:10.665Z,22.81
2022-08-05T15:47:40.303Z,22.44
2022-08-05T15:50:08.094Z,21.22
2022-08-05T15:52:53.693Z,21.43
2022-08-05T15:55:24.852Z,21.60
2022-08-05T15:58:16.785Z,21.98
2022-08-05T16:01:04.055Z,22.08
2022-08-05T16:03:34.712Z,22.39
2022-08-05T16:06:11.412Z,22.77
2022-08-05T16:08:40.508Z,22.85
2022-08-05T16:11:10.314Z,22.86
2022-08-05T16:13:37.283Z,23.21
2022-08-05T16:16:04.417Z,23.44
2022-08-05T16:18:32.330Z,23.16
2022-08-05T16:21:04.406Z,23.31
2022-08-05T16:23:32.974Z,23.44
2022-08-05T16:26:26.225Z,23.11
2022-08-05T16:28:54.751Z,23.58
2022-08-05T16:31:21.808Z,23.85
2022-08-05T16:33:53.926Z,23.49
2022-08-05T16:36:23.841Z,23.64
2022-08-05T16:38:55.013Z,23.80
2022-08-05T16:42:12.541Z,24.03
2022-08-05T16:44:21.110Z,23.55
2022-08-05T16:46:55.442Z,23.39
2022-08-05T16:49:23.424Z,23.63
2022-08-05T16:51:51.374Z,24.10
2022-08-05T16:54:28.663Z,24.40
2022-08-05T16:56:57.791Z,24.23
2022-08-05T16:59:27.688Z,24.33
2022-08-05T17:01:57.982Z,24.51
2022-08-05T17:04:28.626Z,25.00
2022-08-05T17:07:03.282Z,25.37
2022-08-05T17:09:57.242Z,25.54
2022-08-05T17:12:51.551Z,25.76
2022-08-05T17:15:20.732Z,25.87
2022-08-05T17:17:55.136Z,26.03
2022-08-05T17:20:22.159Z,26.19
2022-08-05T17:22:55.509Z,26.62
2022-08-05T17:25:33.910Z,26.95
2022-08-05T17:28:06.736Z,27.42
2022-08-05T17:30:42.560Z,27.51
2022-08-05T17:33:17.863Z,27.81
2022-08-05T17:36:08.841Z,28.07
2022-08-05T17:38:33.666Z,28.22
2022-08-05T17:41:02.933Z,28.31
2022-08-05T17:43:46.798Z,28.55
2022-08-05T17:46:18.337Z,28.87
2022-08-05T17:48:47.796Z,29.11
2022-08-05T17:51:14.635Z,29.07
2022-08-05T17:53:54.399Z,29.29
2022-08-05T17:56:21.739Z,29.38
2022-08-05T17:58:49.833Z,29.50
2022-08-05T18:01:18.387Z,29.93
2022-08-05T18:03:58.677Z,30.37
2022-08-05T18:06:31.146Z,30.60
2022-08-05T18:08:58.140Z,30.78
2022-08-05T18:11:32.979Z,30.90
2022-08-05T18:14:03.541Z,31.17
2022-08-05T18:16:32.527Z,31.17
2022-08-05T18:18:59.173Z,31.38
2022-08-05T18:21:28.711Z,31.72
2022-08-05T18:24:13.116Z,31.81
2022-08-05T18:26:43.890Z,31.91
2022-08-05T18:29:10.783Z,32.12
2022-08-05T18:31:43.148Z,32.12
2022-08-05T18:34:12.121Z,32.50
2022-08-05T18:36:43.620Z,32.58
2022-08-05T18:39:42.292Z,32.68
2022-08-05T18:42:04.749Z,32.83
2022-08-05T18:44:49.384Z,32.88
2022-08-05T18:47:22.606Z,33.17
2022-08-05T18:50:10.832Z,33.24
2022-08-05T18:52:41.216Z,33.34
2022-08-05T18:55:17.630Z,33.42
2022-08-05T18:57:53.072Z,33.38
2022-08-05T19:00:27.234Z,33.24
2022-08-05T19:03:04.185Z,33.15
2022-08-05T19:06:13.575Z,33.25
2022-08-05T19:08:21.652Z,33.28
2022-08-05T19:10:49.435Z,33.18
2022-08-05T19:13:16.762Z,33.21
2022-08-05T19:15:59.713Z,33.06
2022-08-05T19:18:28.306Z,32.89
2022-08-05T19:20:55.560Z,32.70
2022-08-05T19:24:07.125Z,32.74
2022-08-05T19:26:09.541Z,32.66
2022-08-05T19:28:43.158Z,32.64
2022-08-05T19:31:13.339Z,32.71
2022-08-05T19:33:55.651Z,32.89
2022-08-05T19:36:25.398Z,32.97
2022-08-05T19:39:01.218Z,33.31
2022-08-05T19:41:58.450Z,33.41
2022-08-05T19:44:18.528Z,33.42
2022-08-05T19:46:46.402Z,33.30
2022-08-05T19:49:16.950Z,33.25
2022-08-05T19:52:05.267Z,32.97
2022-08-05T19:54:32.348Z,32.77
2022-08-05T19:56:59.675Z,32.62
2022-08-05T20:00:02.073Z,32.41
2022-08-05T20:02:14.180Z,32.33
2022-08-05T20:04:43.139Z,32.30
2022-08-05T20:07:13.836Z,32.18
2022-08-05T20:09:54.818Z,32.32
2022-08-05T20:12:24.001Z,32.49
2022-08-05T20:14:52.518Z,32.60
2022-08-05T20:17:23.235Z,32.62
2022-08-05T20:19:56.601Z,32.74
2022-08-05T20:22:26.598Z,32.92
2022-08-05T20:24:55.275Z,32.93
2022-08-05T20:27:27.014Z,33.06
2022-08-05T20:29:58.315Z,33.19
2022-08-05T20:32:30.950Z,33.28
2022-08-05T20:34:59.983Z,33.63
2022-08-05T20:38:05.962Z,33.50
2022-08-05T20:40:14.563Z,33.57
2022-08-05T20:42:45.306Z,33.71
2022-08-05T20:45:12.559Z,33.95
2022-08-05T20:47:40.376Z,33.95
2022-08-05T20:50:08.235Z,34.16
2022-08-05T20:52:41.455Z,34.17
2022-08-05T20:55:56.131Z,34.29
2022-08-05T20:57:57.057Z,34.28
2022-08-05T21:00:54.401Z,34.21
2022-08-05T21:03:27.028Z,34.30
2022-08-05T21:06:27.830Z,34.35
2022-08-05T21:09:07.669Z,34.40
2022-08-05T21:12:09.312Z,34.24
2022-08-05T21:14:41.473Z,34.33
2022-08-05T21:17:21.832Z,34.31
2022-08-05T21:19:52.106Z,34.20
2022-08-05T21:22:21.735Z,34.11
2022-08-05T21:25:11.862Z,34.25
2022-08-05T21:27:39.676Z,34.32
2022-08-05T21:30:17.548Z,34.19
2022-08-05T21:32:44.548Z,34.33
2022-08-05T21:35:18.038Z,34.44
2022-08-05T21:37:57.413Z,34.36
2022-08-05T21:40:24.988Z,34.21
2022-08-05T21:42:53.753Z,34.42
2022-08-05T21:45:38.134Z,34.32
2022-08-05T21:48:08.478Z,34.41
2022-08-05T21:50:53.120Z,34.74
2022-08-05T21:53:27.268Z,35.17
2022-08-05T21:56:05.668Z,35.29
2022-08-05T21:58:42.386Z,35.44
2022-08-05T22:01:24.011Z,35.71
2022-08-05T22:03:53.509Z,35.83
2022-08-05T22:06:22.987Z,36.11
2022-08-05T22:09:02.126Z,36.60
2022-08-05T22:11:40.993Z,36.57
2022-08-05T22:14:37.171Z,36.86
2022-08-05T22:17:01.511Z,37.09
2022-08-05T22:20:00.424Z,37.36
2022-08-05T22:28:18.192Z,37.94
2022-08-05T22:32:12.880Z,38.18
2022-08-05T22:36:05.354Z,38.32
2022-08-05T22:39:55.057Z,38.59
2022-08-05T22:43:43.575Z,38.86
2022-08-05T22:47:35.334Z,39.12
2022-08-05T22:51:30.024Z,39.35
2022-08-05T22:55:37.078Z,39.31
2022-08-05T22:59:45.247Z,39.44
2022-08-05T23:03:58.126Z,39.64
2022-08-05T23:07:48.564Z,39.73
2022-08-05T23:11:37.860Z,39.84
2022-08-05T23:15:35.385Z,39.88
2022-08-05T23:19:25.936Z,40.07
2022-08-05T23:23:13.911Z,40.27
2022-08-05T23:27:02.196Z,40.64
2022-08-05T23:30:53.174Z,40.65
2022-08-05T23:34:42.906Z,40.87
2022-08-05T23:38:30.851Z,40.92
2022-08-05T23:42:29.148Z,41.03
2022-08-05T23:46:20.226Z,41.18
2022-08-05T23:50:09.692Z,41.35
2022-08-05T23:54:01.141Z,41.42
2022-08-05T23:57:52.712Z,41.65
